sensor_id;sensor_type;location;lat;lon;timestamp;pressure;altitude;pressure_sealevel;temperature;humidity
33554;BME280;19885;42.208;24.952;2023-02-26T00:00:44;98872.78;;;11.71;74.58
33554;BME280;19885;42.208;24.952;2023-02-26T00:03:10;98861.53;;;11.69;74.07
33554;BME280;19885;42.208;24.952;2023-02-26T00:05:35;98856.19;;;11.75;74.18
33554;BME280;19885;42.208;24.952;2023-02-26T00:08:01;98864.06;;;11.73;74.34
33554;BME280;19885;42.208;24.952;2023-02-26T00:10:30;98840.69;;;11.67;73.93
33554;BME280;19885;42.208;24.952;2023-02-26T00:12:56;98864.81;;;11.83;73.85
33554;BME280;19885;42.208;24.952;2023-02-26T00:15:22;98852.69;;;11.79;74.16
33554;BME280;19885;42.208;24.952;2023-02-26T00:17:56;98855.38;;;11.73;74.05
33554;BME280;19885;42.208;24.952;2023-02-26T00:20:24;98851.84;;;11.75;74.04
33554;BME280;19885;42.208;24.952;2023-02-26T00:22:50;98843.81;;;11.89;73.70
33554;BME280;19885;42.208;24.952;2023-02-26T00:25:16;98846.22;;;12.02;72.99
33554;BME280;19885;42.208;24.952;2023-02-26T00:27:42;98848.88;;;12.01;73.01
33554;BME280;19885;42.208;24.952;2023-02-26T00:30:09;98846.44;;;11.89;73.28
33554;BME280;19885;42.208;24.952;2023-02-26T00:32:35;98851.69;;;11.87;73.54
33554;BME280;19885;42.208;24.952;2023-02-26T00:35:01;98857.72;;;11.91;73.53
33554;BME280;19885;42.208;24.952;2023-02-26T00:40:27;98866.31;;;11.99;73.16
33554;BME280;19885;42.208;24.952;2023-02-26T00:42:54;98802.53;;;11.54;73.45
33554;BME280;19885;42.208;24.952;2023-02-26T00:45:20;98863.03;;;11.85;73.90
33554;BME280;19885;42.208;24.952;2023-02-26T00:48:22;98869.78;;;11.98;73.48
33554;BME280;19885;42.208;24.952;2023-02-26T00:51:05;98819.00;;;11.61;73.46
33554;BME280;19885;42.208;24.952;2023-02-26T00:53:49;98842.31;;;11.73;74.57
33554;BME280;19885;42.208;24.952;2023-02-26T00:56:18;98843.22;;;11.72;74.08
33554;BME280;19885;42.208;24.952;2023-02-26T00:58:43;98840.72;;;11.61;74.39
33554;BME280;19885;42.208;24.952;2023-02-26T01:01:09;98837.53;;;11.39;75.69
33554;BME280;19885;42.208;24.952;2023-02-26T01:03:35;98823.44;;;11.53;75.06
33554;BME280;19885;42.208;24.952;2023-02-26T01:06:00;98831.97;;;11.65;74.68
33554;BME280;19885;42.208;24.952;2023-02-26T01:11:26;98839.66;;;11.77;74.08
33554;BME280;19885;42.208;24.952;2023-02-26T01:13:52;98836.97;;;11.82;73.62
33554;BME280;19885;42.208;24.952;2023-02-26T01:16:22;98820.63;;;11.69;74.22
33554;BME280;19885;42.208;24.952;2023-02-26T01:19:27;98832.81;;;11.69;74.21
33554;BME280;19885;42.208;24.952;2023-02-26T01:22:07;98835.19;;;11.85;73.37
33554;BME280;19885;42.208;24.952;2023-02-26T01:24:35;98790.38;;;11.55;74.16
33554;BME280;19885;42.208;24.952;2023-02-26T01:27:04;98822.97;;;11.87;73.72
33554;BME280;19885;42.208;24.952;2023-02-26T01:29:31;98823.66;;;11.98;73.29
33554;BME280;19885;42.208;24.952;2023-02-26T01:32:14;98760.84;;;11.53;73.23
33554;BME280;19885;42.208;24.952;2023-02-26T01:34:56;98823.84;;;11.88;73.14
33554;BME280;19885;42.208;24.952;2023-02-26T01:37:38;98835.16;;;11.87;73.50
33554;BME280;19885;42.208;24.952;2023-02-26T01:43:05;98826.38;;;11.91;73.28
33554;BME280;19885;42.208;24.952;2023-02-26T01:46:21;98837.66;;;11.93;73.49
33554;BME280;19885;42.208;24.952;2023-02-26T01:48:37;98833.34;;;11.92;73.28
33554;BME280;19885;42.208;24.952;2023-02-26T01:51:09;98837.75;;;11.87;73.56
33554;BME280;19885;42.208;24.952;2023-02-26T01:53:35;98840.28;;;11.94;73.70
33554;BME280;19885;42.208;24.952;2023-02-26T01:56:17;98838.47;;;11.98;72.99
33554;BME280;19885;42.208;24.952;2023-02-26T01:58:45;98829.69;;;12.02;73.04
33554;BME280;19885;42.208;24.952;2023-02-26T02:01:12;98828.06;;;11.95;72.85
33554;BME280;19885;42.208;24.952;2023-02-26T02:03:39;98841.00;;;12.02;72.96
33554;BME280;19885;42.208;24.952;2023-02-26T02:06:18;98834.75;;;12.11;72.63
33554;BME280;19885;42.208;24.952;2023-02-26T02:08:45;98844.44;;;12.04;72.38
33554;BME280;19885;42.208;24.952;2023-02-26T02:11:12;98824.41;;;12.05;72.64
33554;BME280;19885;42.208;24.952;2023-02-26T02:14:05;98821.13;;;11.94;72.64
33554;BME280;19885;42.208;24.952;2023-02-26T02:17:02;98752.69;;;11.14;74.06
33554;BME280;19885;42.208;24.952;2023-02-26T02:36:52;98862.03;;;11.93;72.94
33554;BME280;19885;42.208;24.952;2023-02-26T02:39:28;98866.44;;;11.88;73.28
33554;BME280;19885;42.208;24.952;2023-02-26T02:44:31;98860.66;;;11.70;73.84
33554;BME280;19885;42.208;24.952;2023-02-26T02:47:00;98875.16;;;11.89;73.71
33554;BME280;19885;42.208;24.952;2023-02-26T02:49:30;98854.28;;;11.86;73.48
33554;BME280;19885;42.208;24.952;2023-02-26T02:52:32;98872.50;;;11.92;73.11
33554;BME280;19885;42.208;24.952;2023-02-26T02:57:45;98866.44;;;11.90;73.43
33554;BME280;19885;42.208;24.952;2023-02-26T03:00:14;98868.16;;;11.91;73.14
33554;BME280;19885;42.208;24.952;2023-02-26T03:03:03;98877.63;;;11.98;73.28
33554;BME280;19885;42.208;24.952;2023-02-26T03:05:31;98868.25;;;11.85;72.65
33554;BME280;19885;42.208;24.952;2023-02-26T03:08:04;98867.94;;;12.06;71.58
33554;BME280;19885;42.208;24.952;2023-02-26T03:10:31;98860.97;;;12.05;71.58
33554;BME280;19885;42.208;24.952;2023-02-26T03:12:57;98892.97;;;12.19;71.55
33554;BME280;19885;42.208;24.952;2023-02-26T03:15:32;98857.47;;;12.07;71.33
33554;BME280;19885;42.208;24.952;2023-02-26T03:18:12;98832.56;;;11.85;72.05
33554;BME280;19885;42.208;24.952;2023-02-26T03:21:11;98871.56;;;11.96;71.73
33554;BME280;19885;42.208;24.952;2023-02-26T03:23:41;98869.88;;;11.92;72.52
33554;BME280;19885;42.208;24.952;2023-02-26T03:26:13;98847.69;;;12.18;71.78
33554;BME280;19885;42.208;24.952;2023-02-26T03:31:19;98852.88;;;12.20;70.73
33554;BME280;19885;42.208;24.952;2023-02-26T03:36:29;98845.28;;;12.57;70.17
33554;BME280;19885;42.208;24.952;2023-02-26T03:39:13;98821.59;;;12.67;69.51
33554;BME280;19885;42.208;24.952;2023-02-26T03:44:26;98850.88;;;12.84;69.63
33554;BME280;19885;42.208;24.952;2023-02-26T03:46:58;98836.03;;;12.86;69.35
33554;BME280;19885;42.208;24.952;2023-02-26T03:49:31;98840.06;;;13.06;68.73
33554;BME280;19885;42.208;24.952;2023-02-26T03:52:00;98831.25;;;13.10;68.69
33554;BME280;19885;42.208;24.952;2023-02-26T03:54:40;98838.00;;;13.20;68.35
33554;BME280;19885;42.208;24.952;2023-02-26T03:57:09;98828.41;;;13.20;68.24
33554;BME280;19885;42.208;24.952;2023-02-26T03:59:35;98838.44;;;13.41;67.75
33554;BME280;19885;42.208;24.952;2023-02-26T04:02:08;98849.63;;;13.48;67.74
33554;BME280;19885;42.208;24.952;2023-02-26T04:05:27;98840.28;;;13.36;68.21
33554;BME280;19885;42.208;24.952;2023-02-26T04:07:46;98829.69;;;13.42;68.16
33554;BME280;19885;42.208;24.952;2023-02-26T04:10:18;98820.25;;;13.34;68.89
33554;BME280;19885;42.208;24.952;2023-02-26T04:12:49;98829.16;;;13.25;69.46
33554;BME280;19885;42.208;24.952;2023-02-26T04:15:15;98830.63;;;13.40;68.99
33554;BME280;19885;42.208;24.952;2023-02-26T04:17:41;98828.88;;;13.39;68.68
33554;BME280;19885;42.208;24.952;2023-02-26T04:20:07;98833.34;;;13.35;68.75
33554;BME280;19885;42.208;24.952;2023-02-26T04:22:34;98827.84;;;13.46;68.77
33554;BME280;19885;42.208;24.952;2023-02-26T04:25:01;98813.56;;;13.21;69.64
33554;BME280;19885;42.208;24.952;2023-02-26T04:27:30;98818.03;;;13.17;69.90
33554;BME280;19885;42.208;24.952;2023-02-26T04:29:56;98812.41;;;13.35;69.54
33554;BME280;19885;42.208;24.952;2023-02-26T04:32:21;98823.50;;;13.45;69.24
33554;BME280;19885;42.208;24.952;2023-02-26T04:34:47;98829.75;;;13.38;69.67
33554;BME280;19885;42.208;24.952;2023-02-26T04:37:12;98821.38;;;13.22;69.71
33554;BME280;19885;42.208;24.952;2023-02-26T04:39:38;98820.25;;;13.34;69.69
33554;BME280;19885;42.208;24.952;2023-02-26T04:42:03;98829.97;;;13.29;70.14
33554;BME280;19885;42.208;24.952;2023-02-26T04:44:29;98808.09;;;13.31;70.38
33554;BME280;19885;42.208;24.952;2023-02-26T04:46:56;98803.06;;;13.22;71.22
33554;BME280;19885;42.208;24.952;2023-02-26T04:49:21;98802.75;;;13.37;71.56
33554;BME280;19885;42.208;24.952;2023-02-26T04:51:47;98789.09;;;13.23;71.45
33554;BME280;19885;42.208;24.952;2023-02-26T04:54:15;98802.88;;;13.31;72.08
33554;BME280;19885;42.208;24.952;2023-02-26T04:56:41;98813.03;;;13.45;71.92
33554;BME280;19885;42.208;24.952;2023-02-26T04:59:09;98808.56;;;13.50;71.92
33554;BME280;19885;42.208;24.952;2023-02-26T05:01:34;98791.19;;;13.47;71.91
33554;BME280;19885;42.208;24.952;2023-02-26T05:04:00;98803.06;;;13.62;71.82
33554;BME280;19885;42.208;24.952;2023-02-26T05:06:25;98803.22;;;13.56;72.21
33554;BME280;19885;42.208;24.952;2023-02-26T05:08:51;98814.44;;;13.61;71.86
33554;BME280;19885;42.208;24.952;2023-02-26T05:11:17;98811.78;;;13.63;72.09
33554;BME280;19885;42.208;24.952;2023-02-26T05:13:42;98793.00;;;13.44;73.71
33554;BME280;19885;42.208;24.952;2023-02-26T05:16:08;98798.41;;;13.36;74.67
33554;BME280;19885;42.208;24.952;2023-02-26T05:18:34;98790.81;;;13.26;75.20
33554;BME280;19885;42.208;24.952;2023-02-26T05:20:59;98802.78;;;13.36;75.10
33554;BME280;19885;42.208;24.952;2023-02-26T05:23:25;98734.41;;;13.13;74.20
33554;BME280;19885;42.208;24.952;2023-02-26T05:25:54;98796.91;;;13.63;74.29
33554;BME280;19885;42.208;24.952;2023-02-26T05:28:21;98805.53;;;13.68;74.15
33554;BME280;19885;42.208;24.952;2023-02-26T05:30:46;98806.16;;;13.79;73.69
33554;BME280;19885;42.208;24.952;2023-02-26T05:33:12;98799.09;;;13.83;73.93
33554;BME280;19885;42.208;24.952;2023-02-26T05:35:38;98808.53;;;13.90;73.39
33554;BME280;19885;42.208;24.952;2023-02-26T05:38:03;98794.84;;;13.79;73.36
33554;BME280;19885;42.208;24.952;2023-02-26T05:40:29;98806.69;;;13.93;72.59
33554;BME280;19885;42.208;24.952;2023-02-26T05:42:55;98799.75;;;13.92;72.65
33554;BME280;19885;42.208;24.952;2023-02-26T05:45:21;98803.31;;;13.88;72.25
33554;BME280;19885;42.208;24.952;2023-02-26T05:47:46;98805.69;;;13.62;72.61
33554;BME280;19885;42.208;24.952;2023-02-26T05:50:12;98797.44;;;13.42;73.05
33554;BME280;19885;42.208;24.952;2023-02-26T05:52:37;98782.44;;;13.48;72.69
33554;BME280;19885;42.208;24.952;2023-02-26T05:55:04;98815.59;;;13.48;72.82
33554;BME280;19885;42.208;24.952;2023-02-26T05:57:29;98804.16;;;13.53;72.16
33554;BME280;19885;42.208;24.952;2023-02-26T05:59:55;98821.41;;;13.62;70.79
33554;BME280;19885;42.208;24.952;2023-02-26T06:02:21;98824.56;;;13.76;70.17
33554;BME280;19885;42.208;24.952;2023-02-26T06:04:47;98815.91;;;13.74;70.10
33554;BME280;19885;42.208;24.952;2023-02-26T06:07:12;98820.81;;;13.86;68.69
33554;BME280;19885;42.208;24.952;2023-02-26T06:09:38;98826.53;;;14.03;67.45
33554;BME280;19885;42.208;24.952;2023-02-26T06:12:04;98817.16;;;14.30;64.29
33554;BME280;19885;42.208;24.952;2023-02-26T06:14:32;98826.50;;;14.74;62.26
33554;BME280;19885;42.208;24.952;2023-02-26T06:16:58;98832.50;;;15.10;59.97
33554;BME280;19885;42.208;24.952;2023-02-26T06:19:24;98839.44;;;15.41;57.47
33554;BME280;19885;42.208;24.952;2023-02-26T06:21:50;98834.06;;;15.75;56.65
33554;BME280;19885;42.208;24.952;2023-02-26T06:24:16;98826.63;;;15.89;55.87
33554;BME280;19885;42.208;24.952;2023-02-26T06:26:44;98847.13;;;16.06;55.28
33554;BME280;19885;42.208;24.952;2023-02-26T06:29:09;98851.16;;;16.16;54.33
33554;BME280;19885;42.208;24.952;2023-02-26T06:31:36;98842.09;;;16.26;54.49
33554;BME280;19885;42.208;24.952;2023-02-26T06:34:02;98841.25;;;16.50;53.21
33554;BME280;19885;42.208;24.952;2023-02-26T06:36:28;98833.09;;;16.59;52.28
33554;BME280;19885;42.208;24.952;2023-02-26T06:38:53;98804.22;;;16.58;51.26
33554;BME280;19885;42.208;24.952;2023-02-26T06:41:19;98831.44;;;16.81;51.31
33554;BME280;19885;42.208;24.952;2023-02-26T06:43:45;98842.50;;;16.91;50.10
33554;BME280;19885;42.208;24.952;2023-02-26T06:46:11;98852.53;;;17.04;50.64
33554;BME280;19885;42.208;24.952;2023-02-26T06:48:37;98848.84;;;17.10;50.08
33554;BME280;19885;42.208;24.952;2023-02-26T06:51:03;98845.06;;;17.17;49.96
33554;BME280;19885;42.208;24.952;2023-02-26T06:53:28;98839.75;;;17.19;49.11
33554;BME280;19885;42.208;24.952;2023-02-26T06:55:54;98837.97;;;17.19;49.55
33554;BME280;19885;42.208;24.952;2023-02-26T06:58:20;98830.34;;;17.11;49.23
33554;BME280;19885;42.208;24.952;2023-02-26T07:00:46;98837.91;;;17.21;49.54
33554;BME280;19885;42.208;24.952;2023-02-26T07:03:13;98858.53;;;17.33;49.42
33554;BME280;19885;42.208;24.952;2023-02-26T07:05:40;98854.59;;;17.44;50.64
33554;BME280;19885;42.208;24.952;2023-02-26T07:08:06;98858.41;;;17.36;49.79
33554;BME280;19885;42.208;24.952;2023-02-26T07:10:33;98859.19;;;17.38;49.59
33554;BME280;19885;42.208;24.952;2023-02-26T07:12:59;98858.53;;;17.33;50.41
33554;BME280;19885;42.208;24.952;2023-02-26T07:15:25;98853.47;;;17.27;51.14
33554;BME280;19885;42.208;24.952;2023-02-26T07:17:50;98850.91;;;17.25;50.33
33554;BME280;19885;42.208;24.952;2023-02-26T07:20:16;98867.28;;;17.33;51.99
33554;BME280;19885;42.208;24.952;2023-02-26T07:22:42;98865.31;;;17.40;50.33
33554;BME280;19885;42.208;24.952;2023-02-26T07:25:08;98871.41;;;17.65;50.27
33554;BME280;19885;42.208;24.952;2023-02-26T07:27:34;98871.34;;;17.66;51.01
33554;BME280;19885;42.208;24.952;2023-02-26T07:30:00;98878.09;;;17.73;48.96
33554;BME280;19885;42.208;24.952;2023-02-26T07:32:26;98871.84;;;17.76;49.80
33554;BME280;19885;42.208;24.952;2023-02-26T07:34:51;98777.44;;;17.18;49.46
33554;BME280;19885;42.208;24.952;2023-02-26T07:37:17;98877.56;;;17.87;50.02
33554;BME280;19885;42.208;24.952;2023-02-26T07:39:43;98858.53;;;17.79;49.42
33554;BME280;19885;42.208;24.952;2023-02-26T07:42:10;98876.53;;;17.91;50.02
33554;BME280;19885;42.208;24.952;2023-02-26T07:44:35;98848.44;;;17.90;49.75
33554;BME280;19885;42.208;24.952;2023-02-26T07:47:01;98863.16;;;18.17;49.42
33554;BME280;19885;42.208;24.952;2023-02-26T07:49:27;98849.72;;;18.46;49.11
33554;BME280;19885;42.208;24.952;2023-02-26T07:51:52;98853.53;;;19.00;46.98
33554;BME280;19885;42.208;24.952;2023-02-26T07:54:18;98842.75;;;19.24;45.77
33554;BME280;19885;42.208;24.952;2023-02-26T07:56:44;98840.66;;;19.51;44.76
33554;BME280;19885;42.208;24.952;2023-02-26T07:59:10;98845.63;;;19.59;45.61
33554;BME280;19885;42.208;24.952;2023-02-26T08:01:36;98845.28;;;19.85;45.09
33554;BME280;19885;42.208;24.952;2023-02-26T08:04:01;98837.59;;;19.98;43.38
33554;BME280;19885;42.208;24.952;2023-02-26T08:06:27;98834.19;;;19.96;43.91
33554;BME280;19885;42.208;24.952;2023-02-26T08:08:53;98830.50;;;19.62;44.03
33554;BME280;19885;42.208;24.952;2023-02-26T08:11:19;98832.59;;;19.36;44.38
33554;BME280;19885;42.208;24.952;2023-02-26T08:13:45;98826.84;;;19.26;44.15
33554;BME280;19885;42.208;24.952;2023-02-26T08:16:11;98835.47;;;19.30;43.80
33554;BME280;19885;42.208;24.952;2023-02-26T08:18:36;98846.97;;;19.29;44.01
33554;BME280;19885;42.208;24.952;2023-02-26T08:21:02;98860.38;;;19.24;46.62
33554;BME280;19885;42.208;24.952;2023-02-26T08:23:28;98856.94;;;19.22;46.97
33554;BME280;19885;42.208;24.952;2023-02-26T08:26:05;98865.16;;;19.16;46.59
33554;BME280;19885;42.208;24.952;2023-02-26T08:28:31;98823.31;;;18.87;47.04
33554;BME280;19885;42.208;24.952;2023-02-26T08:30:57;98877.00;;;19.07;48.74
33554;BME280;19885;42.208;24.952;2023-02-26T08:33:23;98876.13;;;19.07;49.59
33554;BME280;19885;42.208;24.952;2023-02-26T08:35:50;98874.78;;;18.97;50.14
33554;BME280;19885;42.208;24.952;2023-02-26T08:38:16;98877.81;;;18.88;51.02
33554;BME280;19885;42.208;24.952;2023-02-26T08:40:42;98872.09;;;19.18;50.98
33554;BME280;19885;42.208;24.952;2023-02-26T08:43:08;98831.69;;;19.16;49.94
33554;BME280;19885;42.208;24.952;2023-02-26T08:45:35;98858.41;;;19.29;50.01
33554;BME280;19885;42.208;24.952;2023-02-26T08:48:01;98802.88;;;19.10;50.98
33554;BME280;19885;42.208;24.952;2023-02-26T08:50:27;98831.34;;;19.44;50.66
33554;BME280;19885;42.208;24.952;2023-02-26T08:52:52;98861.06;;;19.68;51.02
33554;BME280;19885;42.208;24.952;2023-02-26T08:55:18;98846.41;;;19.61;50.61
33554;BME280;19885;42.208;24.952;2023-02-26T08:57:43;98837.78;;;19.76;47.99
33554;BME280;19885;42.208;24.952;2023-02-26T09:00:12;98848.75;;;19.85;48.42
33554;BME280;19885;42.208;24.952;2023-02-26T09:02:41;98847.25;;;19.99;49.35
33554;BME280;19885;42.208;24.952;2023-02-26T09:05:10;98844.31;;;19.67;49.98
33554;BME280;19885;42.208;24.952;2023-02-26T09:07:37;98846.72;;;19.73;49.85
33554;BME280;19885;42.208;24.952;2023-02-26T09:10:04;98835.47;;;19.68;49.39
33554;BME280;19885;42.208;24.952;2023-02-26T09:12:31;98855.97;;;20.01;48.74
33554;BME280;19885;42.208;24.952;2023-02-26T09:14:56;98862.91;;;20.22;48.48
33554;BME280;19885;42.208;24.952;2023-02-26T09:17:24;98862.50;;;20.48;47.97
33554;BME280;19885;42.208;24.952;2023-02-26T09:19:50;98875.00;;;20.44;47.61
33554;BME280;19885;42.208;24.952;2023-02-26T09:22:18;98859.72;;;20.51;47.37
33554;BME280;19885;42.208;24.952;2023-02-26T09:24:44;98810.09;;;20.37;47.32
33554;BME280;19885;42.208;24.952;2023-02-26T09:27:09;98860.50;;;20.87;47.70
33554;BME280;19885;42.208;24.952;2023-02-26T09:29:35;98858.91;;;20.83;47.91
33554;BME280;19885;42.208;24.952;2023-02-26T09:32:03;98802.84;;;20.58;47.71
33554;BME280;19885;42.208;24.952;2023-02-26T09:34:35;98854.09;;;21.25;46.84
33554;BME280;19885;42.208;24.952;2023-02-26T09:37:05;98861.13;;;21.42;45.47
33554;BME280;19885;42.208;24.952;2023-02-26T09:39:31;98867.00;;;21.49;45.24
33554;BME280;19885;42.208;24.952;2023-02-26T09:45:01;98842.00;;;22.17;42.52
33554;BME280;19885;42.208;24.952;2023-02-26T09:47:41;98828.94;;;22.43;40.22
33554;BME280;19885;42.208;24.952;2023-02-26T09:50:18;98819.25;;;22.42;39.84
33554;BME280;19885;42.208;24.952;2023-02-26T09:52:55;98826.09;;;22.62;36.08
33554;BME280;19885;42.208;24.952;2023-02-26T09:58:29;98825.81;;;23.24;34.95
33554;BME280;19885;42.208;24.952;2023-02-26T10:01:05;98815.34;;;22.93;34.32
33554;BME280;19885;42.208;24.952;2023-02-26T10:06:32;98781.06;;;22.75;34.81
33554;BME280;19885;42.208;24.952;2023-02-26T10:14:50;98815.84;;;23.00;33.80
33554;BME280;19885;42.208;24.952;2023-02-26T10:19:49;98813.47;;;22.95;34.09
33554;BME280;19885;42.208;24.952;2023-02-26T10:22:32;98812.06;;;22.74;33.21
33554;BME280;19885;42.208;24.952;2023-02-26T10:25:05;98827.53;;;22.67;33.18
33554;BME280;19885;42.208;24.952;2023-02-26T10:31:06;98783.84;;;22.57;34.69
33554;BME280;19885;42.208;24.952;2023-02-26T10:34:06;98814.50;;;22.93;33.71
33554;BME280;19885;42.208;24.952;2023-02-26T10:36:46;98808.69;;;22.86;34.16
33554;BME280;19885;42.208;24.952;2023-02-26T10:39:22;98800.53;;;22.59;35.19
33554;BME280;19885;42.208;24.952;2023-02-26T10:41:51;98801.44;;;22.60;33.93
33554;BME280;19885;42.208;24.952;2023-02-26T10:44:29;98799.56;;;22.46;33.67
33554;BME280;19885;42.208;24.952;2023-02-26T10:47:14;98780.81;;;22.34;34.52
33554;BME280;19885;42.208;24.952;2023-02-26T10:50:03;98804.25;;;22.87;35.32
33554;BME280;19885;42.208;24.952;2023-02-26T10:52:32;98773.41;;;22.84;33.84
33554;BME280;19885;42.208;24.952;2023-02-26T10:58:10;98803.13;;;21.69;41.14
33554;BME280;19885;42.208;24.952;2023-02-26T11:00:36;98802.16;;;21.70;39.58
33554;BME280;19885;42.208;24.952;2023-02-26T11:03:04;98799.09;;;21.62;42.63
33554;BME280;19885;42.208;24.952;2023-02-26T11:05:33;98804.63;;;21.42;42.86
33554;BME280;19885;42.208;24.952;2023-02-26T11:08:08;98797.19;;;21.48;42.89
33554;BME280;19885;42.208;24.952;2023-02-26T11:10:47;98784.00;;;21.47;43.66
33554;BME280;19885;42.208;24.952;2023-02-26T11:13:14;98785.47;;;21.52;41.81
33554;BME280;19885;42.208;24.952;2023-02-26T11:15:41;98780.53;;;21.62;41.97
33554;BME280;19885;42.208;24.952;2023-02-26T11:18:13;98776.91;;;21.63;40.79
33554;BME280;19885;42.208;24.952;2023-02-26T11:20:43;98776.50;;;21.55;41.68
33554;BME280;19885;42.208;24.952;2023-02-26T11:23:13;98786.06;;;21.26;40.14
33554;BME280;19885;42.208;24.952;2023-02-26T11:25:41;98788.44;;;20.81;43.18
33554;BME280;19885;42.208;24.952;2023-02-26T11:28:29;98784.78;;;20.66;42.55
33554;BME280;19885;42.208;24.952;2023-02-26T11:30:55;98767.97;;;20.67;42.75
33554;BME280;19885;42.208;24.952;2023-02-26T11:35:47;98757.25;;;20.53;42.84
33554;BME280;19885;42.208;24.952;2023-02-26T11:38:18;98774.78;;;20.88;42.74
33554;BME280;19885;42.208;24.952;2023-02-26T11:40:50;98784.84;;;21.31;41.85
33554;BME280;19885;42.208;24.952;2023-02-26T11:43:18;98761.56;;;21.85;41.86
33554;BME280;19885;42.208;24.952;2023-02-26T11:45:51;98769.31;;;22.03;41.33
33554;BME280;19885;42.208;24.952;2023-02-26T11:48:25;98759.56;;;22.04;40.35
33554;BME280;19885;42.208;24.952;2023-02-26T11:51:04;98764.50;;;21.79;41.23
33554;BME280;19885;42.208;24.952;2023-02-26T11:53:36;98763.69;;;21.94;39.94
33554;BME280;19885;42.208;24.952;2023-02-26T11:56:13;98782.22;;;21.63;38.79
33554;BME280;19885;42.208;24.952;2023-02-26T11:58:43;98770.69;;;21.64;39.66
33554;BME280;19885;42.208;24.952;2023-02-26T12:01:12;98758.19;;;21.66;39.88
33554;BME280;19885;42.208;24.952;2023-02-26T12:03:41;98748.44;;;21.51;39.57
33554;BME280;19885;42.208;24.952;2023-02-26T12:06:26;98746.97;;;21.45;40.31
33554;BME280;19885;42.208;24.952;2023-02-26T12:08:52;98729.38;;;21.44;39.86
33554;BME280;19885;42.208;24.952;2023-02-26T12:12:01;98741.56;;;21.15;41.81
33554;BME280;19885;42.208;24.952;2023-02-26T12:20:30;98744.72;;;20.89;41.49
33554;BME280;19885;42.208;24.952;2023-02-26T12:23:15;98752.09;;;21.00;42.11
33554;BME280;19885;42.208;24.952;2023-02-26T12:28:49;98768.16;;;20.97;39.32
33554;BME280;19885;42.208;24.952;2023-02-26T12:45:28;98779.97;;;19.11;51.86
33554;BME280;19885;42.208;24.952;2023-02-26T13:01:47;98751.78;;;18.73;53.73
33554;BME280;19885;42.208;24.952;2023-02-26T13:12:45;98749.47;;;18.65;53.17
33554;BME280;19885;42.208;24.952;2023-02-26T13:18:42;98770.28;;;18.52;54.23
33554;BME280;19885;42.208;24.952;2023-02-26T13:21:21;98770.41;;;18.49;54.09
33554;BME280;19885;42.208;24.952;2023-02-26T13:23:52;98784.81;;;18.63;52.73
33554;BME280;19885;42.208;24.952;2023-02-26T13:26:19;98764.47;;;18.65;52.92
33554;BME280;19885;42.208;24.952;2023-02-26T13:28:58;98773.78;;;18.73;52.60
33554;BME280;19885;42.208;24.952;2023-02-26T13:31:39;98769.47;;;18.71;51.70
33554;BME280;19885;42.208;24.952;2023-02-26T13:34:17;98786.84;;;18.76;51.61
33554;BME280;19885;42.208;24.952;2023-02-26T13:36:45;98776.91;;;18.81;51.14
33554;BME280;19885;42.208;24.952;2023-02-26T13:49:30;98810.78;;;18.92;49.69
33554;BME280;19885;42.208;24.952;2023-02-26T13:52:01;98825.44;;;18.99;49.26
33554;BME280;19885;42.208;24.952;2023-02-26T13:54:28;98822.81;;;18.99;49.13
33554;BME280;19885;42.208;24.952;2023-02-26T13:57:32;98819.50;;;18.94;50.18
33554;BME280;19885;42.208;24.952;2023-02-26T14:02:51;98814.81;;;18.60;51.67
33554;BME280;19885;42.208;24.952;2023-02-26T14:10:53;98815.03;;;18.12;53.75
33554;BME280;19885;42.208;24.952;2023-02-26T14:13:22;98822.34;;;18.06;54.17
33554;BME280;19885;42.208;24.952;2023-02-26T14:15:58;98838.28;;;18.03;54.46
33554;BME280;19885;42.208;24.952;2023-02-26T14:19:26;98816.94;;;17.87;54.48
33554;BME280;19885;42.208;24.952;2023-02-26T14:21:26;98817.66;;;17.69;55.27
33554;BME280;19885;42.208;24.952;2023-02-26T14:24:01;98816.97;;;17.64;55.71
33554;BME280;19885;42.208;24.952;2023-02-26T14:26:31;98831.53;;;17.51;56.13
33554;BME280;19885;42.208;24.952;2023-02-26T14:29:21;98815.97;;;17.43;56.27
33554;BME280;19885;42.208;24.952;2023-02-26T14:32:03;98826.78;;;17.36;56.34
33554;BME280;19885;42.208;24.952;2023-02-26T14:34:50;98830.63;;;17.27;57.25
33554;BME280;19885;42.208;24.952;2023-02-26T14:37:21;98828.09;;;17.24;57.32
33554;BME280;19885;42.208;24.952;2023-02-26T14:39:53;98831.75;;;17.22;56.91
33554;BME280;19885;42.208;24.952;2023-02-26T14:42:24;98842.03;;;17.28;57.02
33554;BME280;19885;42.208;24.952;2023-02-26T14:45:25;98850.75;;;17.30;56.62
33554;BME280;19885;42.208;24.952;2023-02-26T14:47:48;98845.13;;;17.16;56.77
33554;BME280;19885;42.208;24.952;2023-02-26T14:50:17;98856.44;;;17.18;56.45
33554;BME280;19885;42.208;24.952;2023-02-26T14:56:10;98863.00;;;17.06;57.21
33554;BME280;19885;42.208;24.952;2023-02-26T15:21:11;98881.75;;;16.72;56.51
33554;BME280;19885;42.208;24.952;2023-02-26T15:23:46;98883.63;;;16.69;56.09
33554;BME280;19885;42.208;24.952;2023-02-26T15:26:22;98877.41;;;16.71;55.71
33554;BME280;19885;42.208;24.952;2023-02-26T15:28:50;98877.91;;;16.56;56.01
33554;BME280;19885;42.208;24.952;2023-02-26T15:31:26;98911.66;;;16.70;55.77
33554;BME280;19885;42.208;24.952;2023-02-26T15:33:55;98889.94;;;16.63;55.61
33554;BME280;19885;42.208;24.952;2023-02-26T15:36:21;98912.88;;;16.60;56.35
33554;BME280;19885;42.208;24.952;2023-02-26T15:38:53;98907.00;;;16.50;55.98
33554;BME280;19885;42.208;24.952;2023-02-26T15:41:24;98898.38;;;16.47;56.14
33554;BME280;19885;42.208;24.952;2023-02-26T15:43:54;98907.00;;;16.50;55.55
33554;BME280;19885;42.208;24.952;2023-02-26T15:46:29;98917.22;;;16.61;53.26